sensor_id;sensor_type;location;lat;lon;timestamp;pressure;altitude;pressure_sealevel;temperature;humidity
53514;BME280;39768;54.148;12.174;2023-04-23T00:03:30;100424.66;;;18.20;49.57
53514;BME280;39768;54.148;12.174;2023-04-23T00:07:36;100428.91;;;17.88;50.35
53514;BME280;39768;54.148;12.174;2023-04-23T00:11:38;100427.59;;;17.96;50.25
53514;BME280;39768;54.148;12.174;2023-04-23T00:15:40;100416.44;;;17.68;52.02
53514;BME280;39768;54.148;12.174;2023-04-23T00:19:47;100401.31;;;16.70;55.62
53514;BME280;39768;54.148;12.174;2023-04-23T00:23:51;100408.53;;;17.84;51.44
53514;BME280;39768;54.148;12.174;2023-04-23T00:27:56;100393.41;;;17.64;51.83
53514;BME280;39768;54.148;12.174;2023-04-23T00:31:58;100400.25;;;17.13;53.18
53514;BME280;39768;54.148;12.174;2023-04-23T00:35:59;100390.84;;;17.42;52.56
53514;BME280;39768;54.148;12.174;2023-04-23T00:40:03;100387.88;;;17.30;53.01
53514;BME280;39768;54.148;12.174;2023-04-23T00:44:07;100388.66;;;17.13;53.51
53514;BME280;39768;54.148;12.174;2023-04-23T00:48:10;100387.78;;;17.12;53.16
53514;BME280;39768;54.148;12.174;2023-04-23T00:52:15;100380.81;;;17.08;52.78
53514;BME280;39768;54.148;12.174;2023-04-23T00:56:17;100387.41;;;17.01;53.68
53514;BME280;39768;54.148;12.174;2023-04-23T01:00:27;100382.94;;;16.81;55.34
53514;BME280;39768;54.148;12.174;2023-04-23T01:04:34;100377.19;;;16.70;54.85
53514;BME280;39768;54.148;12.174;2023-04-23T01:08:43;100379.06;;;16.68;55.85
53514;BME280;39768;54.148;12.174;2023-04-23T01:18:21;100368.47;;;16.45;57.15
53514;BME280;39768;54.148;12.174;2023-04-23T01:22:23;100359.22;;;16.11;60.07
53514;BME280;39768;54.148;12.174;2023-04-23T01:26:28;100361.31;;;16.45;57.80
53514;BME280;39768;54.148;12.174;2023-04-23T01:30:33;100347.22;;;16.40;57.82
53514;BME280;39768;54.148;12.174;2023-04-23T01:34:39;100352.94;;;15.91;59.66
53514;BME280;39768;54.148;12.174;2023-04-23T01:38:42;100364.75;;;16.07;59.14
53514;BME280;39768;54.148;12.174;2023-04-23T01:42:47;100357.78;;;16.03;59.53
53514;BME280;39768;54.148;12.174;2023-04-23T01:46:50;100364.22;;;15.99;60.78
53514;BME280;39768;54.148;12.174;2023-04-23T01:50:53;100350.66;;;15.81;61.77
53514;BME280;39768;54.148;12.174;2023-04-23T01:54:55;100353.28;;;16.03;60.53
53514;BME280;39768;54.148;12.174;2023-04-23T01:59:01;100344.19;;;16.07;60.30
53514;BME280;39768;54.148;12.174;2023-04-23T02:03:03;100349.97;;;16.18;60.77
53514;BME280;39768;54.148;12.174;2023-04-23T02:07:10;100347.78;;;16.28;59.73
53514;BME280;39768;54.148;12.174;2023-04-23T02:11:12;100337.88;;;16.30;58.94
53514;BME280;39768;54.148;12.174;2023-04-23T02:15:18;100338.69;;;16.32;60.02
53514;BME280;39768;54.148;12.174;2023-04-23T02:19:27;100336.06;;;16.31;60.97
53514;BME280;39768;54.148;12.174;2023-04-23T02:23:33;100320.13;;;16.28;62.72
53514;BME280;39768;54.148;12.174;2023-04-23T02:27:42;100320.41;;;15.79;64.07
53514;BME280;39768;54.148;12.174;2023-04-23T02:31:46;100331.88;;;16.03;66.30
53514;BME280;39768;54.148;12.174;2023-04-23T02:35:49;100342.34;;;16.09;70.97
53514;BME280;39768;54.148;12.174;2023-04-23T02:39:53;100350.53;;;16.27;75.02
53514;BME280;39768;54.148;12.174;2023-04-23T02:43:58;100347.97;;;16.44;72.64
53514;BME280;39768;54.148;12.174;2023-04-23T02:48:01;100343.34;;;16.47;70.01
53514;BME280;39768;54.148;12.174;2023-04-23T02:52:05;100346.41;;;16.18;70.76
53514;BME280;39768;54.148;12.174;2023-04-23T02:56:07;100343.34;;;16.47;68.74
53514;BME280;39768;54.148;12.174;2023-04-23T03:00:12;100352.91;;;16.53;68.92
53514;BME280;39768;54.148;12.174;2023-04-23T03:04:17;100355.47;;;16.36;71.14
53514;BME280;39768;54.148;12.174;2023-04-23T03:08:23;100351.84;;;16.57;69.15
53514;BME280;39768;54.148;12.174;2023-04-23T03:12:27;100352.47;;;16.64;67.17
53514;BME280;39768;54.148;12.174;2023-04-23T03:16:29;100348.91;;;16.83;67.71
53514;BME280;39768;54.148;12.174;2023-04-23T03:20:32;100351.00;;;16.77;66.83
53514;BME280;39768;54.148;12.174;2023-04-23T03:24:34;100357.94;;;16.81;67.27
53514;BME280;39768;54.148;12.174;2023-04-23T03:28:41;100355.97;;;17.05;66.28
53514;BME280;39768;54.148;12.174;2023-04-23T03:32:45;100350.66;;;17.03;65.61
53514;BME280;39768;54.148;12.174;2023-04-23T03:36:47;100355.31;;;17.18;64.02
53514;BME280;39768;54.148;12.174;2023-04-23T03:41:22;100351.84;;;17.35;62.02
53514;BME280;39768;54.148;12.174;2023-04-23T03:45:24;100355.06;;;17.42;61.10
53514;BME280;39768;54.148;12.174;2023-04-23T03:49:31;100342.91;;;17.35;61.69
53514;BME280;39768;54.148;12.174;2023-04-23T03:53:33;100348.56;;;17.28;63.64
53514;BME280;39768;54.148;12.174;2023-04-23T03:57:57;100356.69;;;17.46;63.58
53514;BME280;39768;54.148;12.174;2023-04-23T04:02:03;100352.13;;;17.29;63.71
53514;BME280;39768;54.148;12.174;2023-04-23T04:06:08;100347.66;;;16.72;71.12
53514;BME280;39768;54.148;12.174;2023-04-23T04:10:10;100348.28;;;17.35;67.49
53514;BME280;39768;54.148;12.174;2023-04-23T04:14:12;100353.66;;;17.35;68.50
53514;BME280;39768;54.148;12.174;2023-04-23T04:18:14;100352.19;;;17.27;69.05
53514;BME280;39768;54.148;12.174;2023-04-23T04:22:16;100348.41;;;17.50;66.80
53514;BME280;39768;54.148;12.174;2023-04-23T04:26:31;100360.72;;;17.54;67.44
53514;BME280;39768;54.148;12.174;2023-04-23T04:30:33;100352.84;;;17.14;70.90
53514;BME280;39768;54.148;12.174;2023-04-23T04:34:40;100355.75;;;17.28;72.52
53514;BME280;39768;54.148;12.174;2023-04-23T04:38:43;100357.81;;;17.21;73.89
53514;BME280;39768;54.148;12.174;2023-04-23T04:42:45;100353.66;;;17.35;71.08
53514;BME280;39768;54.148;12.174;2023-04-23T04:46:52;100362.72;;;17.87;70.09
53514;BME280;39768;54.148;12.174;2023-04-23T04:50:54;100366.38;;;17.86;69.42
53514;BME280;39768;54.148;12.174;2023-04-23T04:55:03;100368.28;;;18.01;69.37
53514;BME280;39768;54.148;12.174;2023-04-23T04:59:38;100373.81;;;18.15;72.75
53514;BME280;39768;54.148;12.174;2023-04-23T05:03:40;100374.91;;;18.11;74.67
53514;BME280;39768;54.148;12.174;2023-04-23T05:07:45;100373.28;;;18.09;76.20
53514;BME280;39768;54.148;12.174;2023-04-23T05:11:53;100377.34;;;17.62;82.06
53514;BME280;39768;54.148;12.174;2023-04-23T05:15:59;100380.97;;;17.97;81.39
53514;BME280;39768;54.148;12.174;2023-04-23T05:20:02;100378.09;;;18.02;82.24
53514;BME280;39768;54.148;12.174;2023-04-23T05:24:06;100388.59;;;18.07;84.72
53514;BME280;39768;54.148;12.174;2023-04-23T05:28:10;100391.06;;;18.28;84.14
53514;BME280;39768;54.148;12.174;2023-04-23T05:32:18;100389.31;;;18.27;87.14
53514;BME280;39768;54.148;12.174;2023-04-23T05:36:20;100386.22;;;18.01;90.70
53514;BME280;39768;54.148;12.174;2023-04-23T05:40:22;100385.84;;;18.25;90.26
53514;BME280;39768;54.148;12.174;2023-04-23T05:44:26;100399.75;;;18.33;91.67
53514;BME280;39768;54.148;12.174;2023-04-23T05:48:34;100399.75;;;18.33;92.96
53514;BME280;39768;54.148;12.174;2023-04-23T05:52:38;100401.97;;;18.25;95.07
53514;BME280;39768;54.148;12.174;2023-04-23T05:56:40;100400.91;;;17.93;100.00
53514;BME280;39768;54.148;12.174;2023-04-23T06:01:16;100395.03;;;17.85;100.00
53514;BME280;39768;54.148;12.174;2023-04-23T06:05:41;100401.72;;;17.58;100.00
53514;BME280;39768;54.148;12.174;2023-04-23T06:09:51;100391.97;;;17.55;100.00
53514;BME280;39768;54.148;12.174;2023-04-23T06:13:53;100388.44;;;17.74;100.00
53514;BME280;39768;54.148;12.174;2023-04-23T06:18:04;100404.00;;;18.03;100.00
53514;BME280;39768;54.148;12.174;2023-04-23T06:22:17;100400.44;;;18.03;100.00
53514;BME280;39768;54.148;12.174;2023-04-23T06:26:19;100406.28;;;17.93;100.00
53514;BME280;39768;54.148;12.174;2023-04-23T06:30:55;100409.28;;;17.69;100.00
53514;BME280;39768;54.148;12.174;2023-04-23T06:34:58;100438.31;;;17.21;100.00
53514;BME280;39768;54.148;12.174;2023-04-23T06:39:12;100446.47;;;16.17;100.00
53514;BME280;39768;54.148;12.174;2023-04-23T06:43:35;100458.28;;;15.68;100.00
53514;BME280;39768;54.148;12.174;2023-04-23T06:48:05;100456.78;;;15.36;100.00
53514;BME280;39768;54.148;12.174;2023-04-23T06:52:11;100461.63;;;15.26;100.00
53514;BME280;39768;54.148;12.174;2023-04-23T06:56:15;100471.97;;;15.12;100.00
53514;BME280;39768;54.148;12.174;2023-04-23T07:00:30;100472.78;;;14.89;100.00
53514;BME280;39768;54.148;12.174;2023-04-23T07:04:41;100473.09;;;15.05;100.00
53514;BME280;39768;54.148;12.174;2023-04-23T07:08:48;100488.28;;;14.79;100.00
53514;BME280;39768;54.148;12.174;2023-04-23T07:12:50;100482.25;;;14.73;100.00
53514;BME280;39768;54.148;12.174;2023-04-23T07:16:52;100488.56;;;14.45;100.00
53514;BME280;39768;54.148;12.174;2023-04-23T07:20:58;100497.63;;;14.40;100.00
53514;BME280;39768;54.148;12.174;2023-04-23T07:25:00;100501.41;;;14.33;100.00
53514;BME280;39768;54.148;12.174;2023-04-23T07:29:15;100503.22;;;14.04;100.00
53514;BME280;39768;54.148;12.174;2023-04-23T07:33:17;100504.28;;;13.99;100.00
53514;BME280;39768;54.148;12.174;2023-04-23T07:37:30;100502.78;;;14.18;100.00
53514;BME280;39768;54.148;12.174;2023-04-23T07:41:32;100518.84;;;13.89;100.00
53514;BME280;39768;54.148;12.174;2023-04-23T07:46:08;100514.19;;;14.23;100.00
53514;BME280;39768;54.148;12.174;2023-04-23T07:50:10;100523.78;;;14.01;100.00
53514;BME280;39768;54.148;12.174;2023-04-23T07:54:11;100528.84;;;14.10;100.00
53514;BME280;39768;54.148;12.174;2023-04-23T07:58:16;100531.19;;;13.93;100.00
53514;BME280;39768;54.148;12.174;2023-04-23T08:02:18;100531.13;;;14.50;100.00
53514;BME280;39768;54.148;12.174;2023-04-23T08:06:24;100528.75;;;14.41;100.00
53514;BME280;39768;54.148;12.174;2023-04-23T08:10:27;100533.16;;;14.42;100.00
53514;BME280;39768;54.148;12.174;2023-04-23T08:14:29;100535.22;;;14.87;100.00
53514;BME280;39768;54.148;12.174;2023-04-23T08:18:31;100546.09;;;14.82;100.00
53514;BME280;39768;54.148;12.174;2023-04-23T08:22:33;100546.56;;;14.68;100.00
53514;BME280;39768;54.148;12.174;2023-04-23T08:26:35;100562.09;;;14.56;100.00
53514;BME280;39768;54.148;12.174;2023-04-23T08:30:43;100561.31;;;14.54;100.00
53514;BME280;39768;54.148;12.174;2023-04-23T08:34:51;100564.59;;;14.62;100.00
53514;BME280;39768;54.148;12.174;2023-04-23T08:38:55;100560.09;;;14.34;100.00
53514;BME280;39768;54.148;12.174;2023-04-23T08:43:20;100567.03;;;14.94;100.00
53514;BME280;39768;54.148;12.174;2023-04-23T08:47:28;100566.59;;;14.81;100.00
53514;BME280;39768;54.148;12.174;2023-04-23T08:51:37;100563.88;;;14.83;100.00
53514;BME280;39768;54.148;12.174;2023-04-23T08:56:09;100575.25;;;14.88;100.00
53514;BME280;39768;54.148;12.174;2023-04-23T09:00:50;100577.50;;;15.00;100.00
53514;BME280;39768;54.148;12.174;2023-04-23T09:05:39;100579.59;;;15.17;100.00
53514;BME280;39768;54.148;12.174;2023-04-23T09:10:14;100569.59;;;15.47;100.00
53514;BME280;39768;54.148;12.174;2023-04-23T09:14:22;100565.78;;;15.79;100.00
53514;BME280;39768;54.148;12.174;2023-04-23T09:18:34;100560.84;;;15.68;100.00
53514;BME280;39768;54.148;12.174;2023-04-23T09:22:50;100567.06;;;15.69;100.00
53514;BME280;39768;54.148;12.174;2023-04-23T09:26:53;100560.94;;;15.65;100.00
53514;BME280;39768;54.148;12.174;2023-04-23T09:30:59;100565.38;;;15.66;100.00
53514;BME280;39768;54.148;12.174;2023-04-23T09:35:16;100575.13;;;14.93;100.00
53514;BME280;39768;54.148;12.174;2023-04-23T09:39:22;100573.00;;;15.52;100.00
53514;BME280;39768;54.148;12.174;2023-04-23T09:43:29;100572.22;;;15.73;100.00
53514;BME280;39768;54.148;12.174;2023-04-23T09:47:53;100571.19;;;15.77;100.00
53514;BME280;39768;54.148;12.174;2023-04-23T09:53:28;100570.97;;;15.83;100.00
53514;BME280;39768;54.148;12.174;2023-04-23T09:58:29;100569.44;;;15.76;100.00
53514;BME280;39768;54.148;12.174;2023-04-23T10:03:41;100562.63;;;15.68;100.00
53514;BME280;39768;54.148;12.174;2023-04-23T10:20:32;100569.16;;;15.84;100.00
53514;BME280;39768;54.148;12.174;2023-04-23T10:25:54;100557.69;;;15.57;99.36
53514;BME280;39768;54.148;12.174;2023-04-23T10:47:54;100568.84;;;16.15;86.42
53514;BME280;39768;54.148;12.174;2023-04-23T10:52:11;100559.59;;;16.67;83.19
53514;BME280;39768;54.148;12.174;2023-04-23T10:56:21;100565.44;;;16.77;84.08
53514;BME280;39768;54.148;12.174;2023-04-23T11:00:23;100574.47;;;17.16;82.36
53514;BME280;39768;54.148;12.174;2023-04-23T11:04:26;100578.19;;;16.92;84.28
53514;BME280;39768;54.148;12.174;2023-04-23T11:08:30;100565.69;;;17.33;86.43
53514;BME280;39768;54.148;12.174;2023-04-23T11:12:34;100567.03;;;17.03;83.67
53514;BME280;39768;54.148;12.174;2023-04-23T11:16:36;100556.94;;;17.69;78.18
53514;BME280;39768;54.148;12.174;2023-04-23T11:20:37;100563.03;;;17.72;77.84
53514;BME280;39768;54.148;12.174;2023-04-23T11:24:40;100551.91;;;17.41;76.66
53514;BME280;39768;54.148;12.174;2023-04-23T11:28:43;100561.16;;;17.74;79.44
53514;BME280;39768;54.148;12.174;2023-04-23T11:32:49;100567.41;;;17.14;76.83
53514;BME280;39768;54.148;12.174;2023-04-23T11:36:52;100554.66;;;17.39;72.09
53514;BME280;39768;54.148;12.174;2023-04-23T11:40:55;100567.91;;;17.83;72.40
53514;BME280;39768;54.148;12.174;2023-04-23T11:44:56;100559.84;;;18.02;67.08
53514;BME280;39768;54.148;12.174;2023-04-23T11:49:01;100566.66;;;18.46;64.46
53514;BME280;39768;54.148;12.174;2023-04-23T11:53:06;100563.28;;;18.96;64.03
53514;BME280;39768;54.148;12.174;2023-04-23T11:57:09;100560.34;;;18.66;66.82
53514;BME280;39768;54.148;12.174;2023-04-23T12:01:11;100558.53;;;19.01;59.12
53514;BME280;39768;54.148;12.174;2023-04-23T12:05:13;100564.63;;;19.05;61.10
53514;BME280;39768;54.148;12.174;2023-04-23T12:09:16;100568.56;;;19.32;55.23
53514;BME280;39768;54.148;12.174;2023-04-23T12:17:22;100569.63;;;18.40;59.06
53514;BME280;39768;54.148;12.174;2023-04-23T12:21:23;100566.06;;;18.58;57.23
53514;BME280;39768;54.148;12.174;2023-04-23T12:25:26;100566.38;;;18.15;64.38
53514;BME280;39768;54.148;12.174;2023-04-23T12:29:29;100580.16;;;18.63;55.88
53514;BME280;39768;54.148;12.174;2023-04-23T12:33:30;100581.16;;;18.80;56.42
53514;BME280;39768;54.148;12.174;2023-04-23T12:37:34;100587.06;;;18.50;61.84
53514;BME280;39768;54.148;12.174;2023-04-23T12:41:36;100589.41;;;18.94;60.17
53514;BME280;39768;54.148;12.174;2023-04-23T12:45:38;100590.03;;;18.44;60.38
53514;BME280;39768;54.148;12.174;2023-04-23T12:49:40;100581.44;;;18.74;57.89
53514;BME280;39768;54.148;12.174;2023-04-23T12:53:43;100583.22;;;18.00;56.63
53514;BME280;39768;54.148;12.174;2023-04-23T12:57:45;100589.91;;;17.91;53.79
53514;BME280;39768;54.148;12.174;2023-04-23T13:01:46;100570.00;;;18.14;56.43
53514;BME280;39768;54.148;12.174;2023-04-23T13:05:48;100572.84;;;18.67;55.26
53514;BME280;39768;54.148;12.174;2023-04-23T13:09:50;100575.47;;;18.31;54.83
53514;BME280;39768;54.148;12.174;2023-04-23T13:13:51;100565.06;;;18.61;55.55
53514;BME280;39768;54.148;12.174;2023-04-23T13:17:53;100565.72;;;18.28;53.64
53514;BME280;39768;54.148;12.174;2023-04-23T13:21:54;100560.72;;;18.76;52.47
53514;BME280;39768;54.148;12.174;2023-04-23T13:25:56;100571.88;;;18.85;51.71
53514;BME280;39768;54.148;12.174;2023-04-23T13:29:57;100561.34;;;18.63;53.78
53514;BME280;39768;54.148;12.174;2023-04-23T13:33:59;100552.56;;;18.60;53.50
53514;BME280;39768;54.148;12.174;2023-04-23T13:38:03;100552.38;;;18.82;52.24
53514;BME280;39768;54.148;12.174;2023-04-23T13:42:05;100556.53;;;18.70;55.62
53514;BME280;39768;54.148;12.174;2023-04-23T13:46:10;100548.97;;;18.23;56.10
53514;BME280;39768;54.148;12.174;2023-04-23T13:50:12;100547.28;;;18.76;54.22
53514;BME280;39768;54.148;12.174;2023-04-23T13:54:13;100553.78;;;19.41;52.22
53514;BME280;39768;54.148;12.174;2023-04-23T13:58:15;100547.63;;;19.04;50.27
53514;BME280;39768;54.148;12.174;2023-04-23T14:02:16;100546.22;;;19.14;50.83
53514;BME280;39768;54.148;12.174;2023-04-23T14:06:18;100534.94;;;19.58;48.55
53514;BME280;39768;54.148;12.174;2023-04-23T14:10:19;100519.94;;;18.67;47.53
53514;BME280;39768;54.148;12.174;2023-04-23T14:14:21;100524.56;;;19.33;50.58
53514;BME280;39768;54.148;12.174;2023-04-23T14:18:22;100526.28;;;19.51;46.39
53514;BME280;39768;54.148;12.174;2023-04-23T14:22:24;100527.97;;;19.36;44.75
53514;BME280;39768;54.148;12.174;2023-04-23T14:26:27;100527.75;;;19.90;47.09
53514;BME280;39768;54.148;12.174;2023-04-23T14:30:47;100532.56;;;20.16;44.30
53514;BME280;39768;54.148;12.174;2023-04-23T14:34:49;100527.59;;;20.24;43.65
53514;BME280;39768;54.148;12.174;2023-04-23T14:38:51;100523.97;;;20.41;44.06
53514;BME280;39768;54.148;12.174;2023-04-23T14:42:52;100519.44;;;20.57;43.19
53514;BME280;39768;54.148;12.174;2023-04-23T14:46:59;100514.66;;;20.62;42.80
53514;BME280;39768;54.148;12.174;2023-04-23T14:51:01;100521.44;;;21.13;42.79
53514;BME280;39768;54.148;12.174;2023-04-23T14:55:02;100515.06;;;20.55;43.77
53514;BME280;39768;54.148;12.174;2023-04-23T14:59:04;100504.03;;;20.12;45.18
53514;BME280;39768;54.148;12.174;2023-04-23T15:03:05;100503.38;;;21.00;44.44
53514;BME280;39768;54.148;12.174;2023-04-23T15:07:11;100494.97;;;20.60;44.74
53514;BME280;39768;54.148;12.174;2023-04-23T15:11:12;100495.78;;;20.31;44.83
53514;BME280;39768;54.148;12.174;2023-04-23T15:15:20;100487.19;;;21.00;44.96
53514;BME280;39768;54.148;12.174;2023-04-23T15:19:33;100489.50;;;19.67;46.51
53514;BME280;39768;54.148;12.174;2023-04-23T15:23:35;100479.19;;;18.92;49.41
53514;BME280;39768;54.148;12.174;2023-04-23T15:27:36;100490.38;;;19.68;49.27
53514;BME280;39768;54.148;12.174;2023-04-23T15:31:38;100496.47;;;19.87;49.02
53514;BME280;39768;54.148;12.174;2023-04-23T15:35:39;100483.22;;;19.51;49.71
53514;BME280;39768;54.148;12.174;2023-04-23T15:39:41;100481.91;;;19.25;51.85
53514;BME280;39768;54.148;12.174;2023-04-23T15:43:43;100476.03;;;19.67;50.45
53514;BME280;39768;54.148;12.174;2023-04-23T15:47:44;100475.69;;;18.90;53.03
53514;BME280;39768;54.148;12.174;2023-04-23T15:51:46;100470.00;;;19.29;51.80
53514;BME280;39768;54.148;12.174;2023-04-23T15:55:50;100461.06;;;20.25;49.50
53514;BME280;39768;54.148;12.174;2023-04-23T15:59:52;100455.91;;;18.91;52.49
53514;BME280;39768;54.148;12.174;2023-04-23T16:03:55;100447.91;;;19.40;52.60
53514;BME280;39768;54.148;12.174;2023-04-23T16:08:00;100437.28;;;20.01;50.98
53514;BME280;39768;54.148;12.174;2023-04-23T16:12:02;100427.19;;;19.89;51.78
53514;BME280;39768;54.148;12.174;2023-04-23T16:16:04;100426.59;;;19.68;52.25
53514;BME280;39768;54.148;12.174;2023-04-23T16:20:07;100426.69;;;19.01;53.13
53514;BME280;39768;54.148;12.174;2023-04-23T16:24:09;100421.28;;;19.18;53.04
53514;BME280;39768;54.148;12.174;2023-04-23T16:28:10;100418.88;;;19.29;54.83
53514;BME280;39768;54.148;12.174;2023-04-23T16:32:14;100397.78;;;18.89;59.22
53514;BME280;39768;54.148;12.174;2023-04-23T16:36:16;100398.31;;;19.28;60.30
53514;BME280;39768;54.148;12.174;2023-04-23T16:40:18;100404.53;;;19.13;61.99
53514;BME280;39768;54.148;12.174;2023-04-23T16:44:19;100392.63;;;19.17;62.19
53514;BME280;39768;54.148;12.174;2023-04-23T16:48:21;100394.28;;;19.20;62.90
53514;BME280;39768;54.148;12.174;2023-04-23T16:52:22;100401.53;;;20.14;59.43
53514;BME280;39768;54.148;12.174;2023-04-23T16:56:24;100398.16;;;20.56;57.39
53514;BME280;39768;54.148;12.174;2023-04-23T17:00:26;100388.09;;;19.02;65.21
53514;BME280;39768;54.148;12.174;2023-04-23T17:04:27;100390.97;;;19.79;63.39
53514;BME280;39768;54.148;12.174;2023-04-23T17:08:29;100384.38;;;19.69;61.37
53514;BME280;39768;54.148;12.174;2023-04-23T17:12:31;100386.84;;;19.58;65.45
53514;BME280;39768;54.148;12.174;2023-04-23T17:16:32;100384.25;;;20.18;60.10
53514;BME280;39768;54.148;12.174;2023-04-23T17:20:34;100386.81;;;20.79;58.58
53514;BME280;39768;54.148;12.174;2023-04-23T17:24:36;100388.22;;;20.56;60.94
53514;BME280;39768;54.148;12.174;2023-04-23T17:28:39;100375.31;;;20.47;62.02
53514;BME280;39768;54.148;12.174;2023-04-23T17:32:41;100368.78;;;19.27;69.65
53514;BME280;39768;54.148;12.174;2023-04-23T17:36:42;100366.16;;;18.42;78.69
53514;BME280;39768;54.148;12.174;2023-04-23T17:40:44;100364.28;;;18.10;78.14
53514;BME280;39768;54.148;12.174;2023-04-23T17:44:45;100352.31;;;17.98;79.42
53514;BME280;39768;54.148;12.174;2023-04-23T17:48:47;100353.13;;;18.00;79.20
53514;BME280;39768;54.148;12.174;2023-04-23T17:52:49;100354.72;;;18.39;75.88
53514;BME280;39768;54.148;12.174;2023-04-23T17:56:51;100353.91;;;17.66;77.69
53514;BME280;39768;54.148;12.174;2023-04-23T18:00:53;100347.97;;;17.03;85.26
53514;BME280;39768;54.148;12.174;2023-04-23T18:04:54;100353.78;;;16.53;91.33
53514;BME280;39768;54.148;12.174;2023-04-23T18:08:56;100355.53;;;17.14;83.83
53514;BME280;39768;54.148;12.174;2023-04-23T18:12:59;100361.44;;;17.58;81.37
53514;BME280;39768;54.148;12.174;2023-04-23T18:17:01;100374.28;;;17.89;75.46
53514;BME280;39768;54.148;12.174;2023-04-23T18:21:03;100386.22;;;18.01;75.65
53514;BME280;39768;54.148;12.174;2023-04-23T18:25:06;100397.84;;;17.65;76.35
53514;BME280;39768;54.148;12.174;2023-04-23T18:29:07;100400.84;;;17.57;79.67
53514;BME280;39768;54.148;12.174;2023-04-23T18:33:27;100408.00;;;17.38;79.35
53514;BME280;39768;54.148;12.174;2023-04-23T18:37:31;100411.16;;;17.48;78.71
53514;BME280;39768;54.148;12.174;2023-04-23T18:41:33;100416.13;;;17.37;79.82
53514;BME280;39768;54.148;12.174;2023-04-23T18:45:36;100424.75;;;16.65;86.79
53514;BME280;39768;54.148;12.174;2023-04-23T18:49:43;100415.66;;;16.47;86.88
53514;BME280;39768;54.148;12.174;2023-04-23T18:53:47;100417.41;;;16.28;88.27
53514;BME280;39768;54.148;12.174;2023-04-23T18:57:48;100416.66;;;16.67;84.42
53514;BME280;39768;54.148;12.174;2023-04-23T19:01:50;100411.72;;;15.94;89.49
53514;BME280;39768;54.148;12.174;2023-04-23T19:05:52;100417.00;;;15.50;92.73
53514;BME280;39768;54.148;12.174;2023-04-23T19:09:53;100416.69;;;15.12;95.70
53514;BME280;39768;54.148;12.174;2023-04-23T19:13:55;100424.34;;;15.45;91.92
53514;BME280;39768;54.148;12.174;2023-04-23T19:17:56;100416.31;;;15.22;90.30
53514;BME280;39768;54.148;12.174;2023-04-23T19:21:58;100421.31;;;15.54;90.52
53514;BME280;39768;54.148;12.174;2023-04-23T19:26:01;100427.47;;;15.58;90.64
53514;BME280;39768;54.148;12.174;2023-04-23T19:30:04;100414.84;;;15.83;88.85
53514;BME280;39768;54.148;12.174;2023-04-23T19:34:07;100409.84;;;15.96;87.12
53514;BME280;39768;54.148;12.174;2023-04-23T19:38:08;100388.13;;;16.23;86.08
53514;BME280;39768;54.148;12.174;2023-04-23T19:42:10;100385.81;;;16.16;88.43
53514;BME280;39768;54.148;12.174;2023-04-23T19:46:12;100376.63;;;16.21;85.11
53514;BME280;39768;54.148;12.174;2023-04-23T19:50:13;100381.91;;;16.23;85.27
53514;BME280;39768;54.148;12.174;2023-04-23T19:54:15;100380.59;;;15.91;87.75
53514;BME280;39768;54.148;12.174;2023-04-23T19:58:16;100392.28;;;15.88;88.77
53514;BME280;39768;54.148;12.174;2023-04-23T20:02:19;100369.69;;;15.96;88.84
53514;BME280;39768;54.148;12.174;2023-04-23T20:06:20;100364.84;;;15.83;88.75
53514;BME280;39768;54.148;12.174;2023-04-23T20:10:22;100363.09;;;15.82;89.43
53514;BME280;39768;54.148;12.174;2023-04-23T20:14:29;100357.56;;;15.87;88.82
53514;BME280;39768;54.148;12.174;2023-04-23T20:18:30;100358.38;;;15.67;88.56
53514;BME280;39768;54.148;12.174;2023-04-23T20:22:35;100353.94;;;15.88;88.67
53514;BME280;39768;54.148;12.174;2023-04-23T20:26:38;100345.47;;;15.77;89.27
53514;BME280;39768;54.148;12.174;2023-04-23T20:30:40;100346.06;;;15.85;88.70
53514;BME280;39768;54.148;12.174;2023-04-23T20:34:42;100329.94;;;15.65;91.20
53514;BME280;39768;54.148;12.174;2023-04-23T20:38:43;100329.53;;;15.74;90.03
53514;BME280;39768;54.148;12.174;2023-04-23T20:42:45;100336.28;;;15.62;91.78
53514;BME280;39768;54.148;12.174;2023-04-23T20:46:48;100334.53;;;15.83;91.48
53514;BME280;39768;54.148;12.174;2023-04-23T20:50:49;100316.47;;;15.88;91.47
53514;BME280;39768;54.148;12.174;2023-04-23T20:54:51;100325.28;;;15.70;91.58
53514;BME280;39768;54.148;12.174;2023-04-23T20:58:52;100306.16;;;15.79;92.85
53514;BME280;39768;54.148;12.174;2023-04-23T21:02:54;100303.56;;;15.98;91.66
53514;BME280;39768;54.148;12.174;2023-04-23T21:06:56;100293.13;;;16.12;91.34
53514;BME280;39768;54.148;12.174;2023-04-23T21:10:58;100298.06;;;16.21;90.53
53514;BME280;39768;54.148;12.174;2023-04-23T21:15:00;100289.53;;;16.13;90.72
53514;BME280;39768;54.148;12.174;2023-04-23T21:19:02;100292.47;;;16.27;89.48
53514;BME280;39768;54.148;12.174;2023-04-23T21:23:04;100273.53;;;16.32;88.55
53514;BME280;39768;54.148;12.174;2023-04-23T21:27:05;100270.28;;;16.44;88.52
53514;BME280;39768;54.148;12.174;2023-04-23T21:31:16;100264.06;;;16.43;88.68
53514;BME280;39768;54.148;12.174;2023-04-23T21:35:22;100260.91;;;16.34;87.42
53514;BME280;39768;54.148;12.174;2023-04-23T21:39:23;100256.75;;;16.47;86.61
53514;BME280;39768;54.148;12.174;2023-04-23T21:43:25;100244.38;;;16.24;87.09
53514;BME280;39768;54.148;12.174;2023-04-23T21:47:26;100247.16;;;16.02;88.92